createdAt,value
2022-08-28T00:01:29.298Z,98904.03
2022-08-28T00:03:59.215Z,98901.91
2022-08-28T00:06:28.443Z,98900.84
2022-08-28T00:08:57.250Z,98898.47
2022-08-28T00:11:26.141Z,98915.69
2022-08-28T00:13:54.926Z,98905.88
2022-08-28T00:16:27.675Z,98907.75
2022-08-28T00:18:56.513Z,98914.34
2022-08-28T00:21:26.006Z,98916.22
2022-08-28T00:23:55.020Z,98911.97
2022-08-28T00:26:37.688Z,98925.25
2022-08-28T00:29:07.376Z,98919.41
2022-08-28T00:31:38.490Z,98912.50
2022-08-28T00:34:07.779Z,98922.59
2022-08-28T00:36:37.774Z,98924.69
2022-08-28T00:39:07.338Z,98918.88
2022-08-28T00:41:36.718Z,98921.00
2022-08-28T00:44:13.289Z,98921.78
2022-08-28T00:46:45.135Z,98915.97
2022-08-28T00:49:16.050Z,98914.66
2022-08-28T00:52:02.554Z,98914.38
2022-08-28T00:54:33.013Z,98909.31
2022-08-28T00:57:04.281Z,98914.09
2022-08-28T00:59:33.470Z,98912.22
2022-08-28T01:02:03.773Z,98905.59
2022-08-28T01:04:34.019Z,98909.84
2022-08-28T01:07:06.640Z,98900.84
2022-08-28T01:09:36.448Z,98908.25
2022-08-28T01:12:09.353Z,98907.47
2022-08-28T01:14:40.547Z,98911.19
2022-08-28T01:17:11.455Z,98904.28
2022-08-28T01:19:42.573Z,98908.78
2022-08-28T01:22:22.228Z,98907.75
2022-08-28T01:24:54.077Z,98897.13
2022-08-28T01:27:24.967Z,98907.72
2022-08-28T01:29:55.315Z,98905.84
2022-08-28T01:32:29.862Z,98904.00
2022-08-28T01:34:59.181Z,98904.56
2022-08-28T01:37:28.097Z,98895.28
2022-08-28T01:39:58.574Z,98902.44
2022-08-28T01:42:27.799Z,98900.03
2022-08-28T01:44:56.819Z,98899.78
2022-08-28T01:47:25.581Z,98895.56
2022-08-28T01:49:54.307Z,98900.59
2022-08-28T01:52:26.280Z,98895.78
2022-08-28T01:54:55.397Z,98903.50
2022-08-28T01:57:27.965Z,98903.50
2022-08-28T01:59:56.743Z,98906.66
2022-08-28T02:02:26.021Z,98905.88
2022-08-28T02:04:54.821Z,98907.22
2022-08-28T02:07:23.538Z,98905.66
2022-08-28T02:09:52.689Z,98909.63
2022-08-28T02:12:21.445Z,98907.22
2022-08-28T02:14:51.833Z,98909.84
2022-08-28T02:17:20.599Z,98915.69
2022-08-28T02:19:49.485Z,98906.16
2022-08-28T02:22:18.359Z,98909.63
2022-08-28T02:24:47.275Z,98900.84
2022-08-28T02:27:16.041Z,98911.44
2022-08-28T02:29:45.003Z,98906.94
2022-08-28T02:32:15.311Z,98915.44
2022-08-28T02:34:44.135Z,98913.56
2022-08-28T02:37:13.634Z,98913.06
2022-08-28T02:39:42.350Z,98919.13
2022-08-28T02:42:11.115Z,98918.88
2022-08-28T02:44:40.028Z,98914.59
2022-08-28T02:47:09.065Z,98914.09
2022-08-28T02:49:39.348Z,98915.94
2022-08-28T02:52:08.185Z,98905.88
2022-08-28T02:54:38.644Z,98916.19
2022-08-28T02:57:08.734Z,98909.63
2022-08-28T02:59:37.915Z,98912.78
2022-08-28T03:02:07.554Z,98914.09
2022-08-28T03:04:37.683Z,98912.78
2022-08-28T03:07:10.008Z,98908.81
2022-08-28T03:09:41.576Z,98914.38
2022-08-28T03:12:13.098Z,98913.59
2022-08-28T03:14:42.425Z,98908.78
2022-08-28T03:17:11.228Z,98906.16
2022-08-28T03:19:39.948Z,98911.72
2022-08-28T03:22:10.521Z,98899.78
2022-08-28T03:24:38.380Z,98905.63
2022-08-28T03:27:07.207Z,98909.31
2022-08-28T03:29:36.361Z,98906.16
2022-08-28T03:32:05.541Z,98906.16
2022-08-28T03:34:34.701Z,98907.72
2022-08-28T03:37:03.494Z,98905.59
2022-08-28T03:39:33.992Z,98892.38
2022-08-28T03:42:03.782Z,98904.03
2022-08-28T03:44:33.292Z,98907.47
2022-08-28T03:47:02.057Z,98916.75
2022-08-28T03:49:31.270Z,98910.41
2022-08-28T03:52:00.553Z,98913.81
2022-08-28T03:54:31.637Z,98919.91
2022-08-28T03:57:01.798Z,98921.22
2022-08-28T03:59:31.776Z,98920.47
2022-08-28T04:02:02.515Z,98922.84
2022-08-28T04:04:31.363Z,98913.59
2022-08-28T04:07:00.189Z,98926.31
2022-08-28T04:09:28.937Z,98921.78
2022-08-28T04:11:57.834Z,98924.16
2022-08-28T04:14:28.030Z,98922.56
2022-08-28T04:17:01.405Z,98929.47
2022-08-28T04:19:31.106Z,98922.56
2022-08-28T04:21:59.961Z,98927.09
2022-08-28T04:24:28.718Z,98928.66
2022-08-28T04:26:57.564Z,98923.88
2022-08-28T04:29:28.114Z,98931.06
2022-08-28T04:31:58.295Z,98931.28
2022-08-28T04:34:27.155Z,98926.81
2022-08-28T04:36:55.943Z,98933.16
2022-08-28T04:39:24.750Z,98927.84
2022-08-28T04:41:55.973Z,98927.84
2022-08-28T04:44:24.732Z,98924.66
2022-08-28T04:46:54.986Z,98928.63
2022-08-28T04:49:27.666Z,98919.09
2022-08-28T04:51:56.459Z,98927.81
2022-08-28T04:54:25.167Z,98929.41
2022-08-28T04:56:53.949Z,98929.94
2022-08-28T04:59:22.746Z,98930.75
2022-08-28T05:01:52.079Z,98928.34
2022-08-28T05:04:22.553Z,98931.53
2022-08-28T05:06:51.381Z,98931.50
2022-08-28T05:09:20.846Z,98938.41
2022-08-28T05:11:50.458Z,98941.06
2022-08-28T05:14:20.083Z,98939.19
2022-08-28T05:16:50.295Z,98944.50
2022-08-28T05:19:20.051Z,98951.69
2022-08-28T05:21:50.179Z,98944.00
2022-08-28T05:24:18.979Z,98944.78
2022-08-28T05:26:48.268Z,98949.25
2022-08-28T05:29:18.001Z,98957.22
2022-08-28T05:31:47.702Z,98945.31
2022-08-28T05:34:16.659Z,98958.03
2022-08-28T05:36:45.414Z,98954.56
2022-08-28T05:39:16.627Z,98938.16
2022-08-28T05:41:46.713Z,98950.63
2022-08-28T05:44:17.166Z,98956.97
2022-08-28T05:46:48.068Z,98942.41
2022-08-28T05:49:18.285Z,98953.50
2022-08-28T05:51:47.476Z,98955.88
2022-08-28T05:54:18.111Z,98956.16
2022-08-28T05:56:47.124Z,98943.19
2022-08-28T05:59:17.043Z,98960.91
2022-08-28T06:01:47.789Z,98964.34
2022-08-28T06:04:19.141Z,98958.75
2022-08-28T06:06:49.447Z,98957.94
2022-08-28T06:09:28.175Z,98964.56
2022-08-28T06:11:59.748Z,98964.03
2022-08-28T06:14:29.711Z,98971.75
2022-08-28T06:16:59.700Z,98974.09
2022-08-28T06:19:30.147Z,98970.66
2022-08-28T06:22:00.834Z,98978.03
2022-08-28T06:24:31.414Z,98970.59
2022-08-28T06:27:00.501Z,98971.69
2022-08-28T06:29:29.557Z,98971.91
2022-08-28T06:32:00.231Z,98978.53
2022-08-28T06:34:29.971Z,98969.25
2022-08-28T06:36:58.729Z,98983.81
2022-08-28T06:39:27.474Z,98988.59
2022-08-28T06:41:57.679Z,98978.50
2022-08-28T06:44:26.517Z,98979.59
2022-08-28T06:46:55.764Z,98983.28
2022-08-28T06:49:25.170Z,98984.56
2022-08-28T06:51:54.122Z,98991.22
2022-08-28T06:54:23.683Z,98994.88
2022-08-28T06:56:52.946Z,98995.34
2022-08-28T06:59:23.096Z,99002.25
2022-08-28T07:01:54.466Z,98998.53
2022-08-28T07:04:23.397Z,99004.63
2022-08-28T07:06:54.626Z,99006.22
2022-08-28T07:09:24.816Z,99008.31
2022-08-28T07:11:54.220Z,99009.38
2022-08-28T07:14:25.723Z,99010.63
2022-08-28T07:16:55.017Z,99014.28
2022-08-28T07:19:24.232Z,99016.66
2022-08-28T07:21:53.342Z,99010.25
2022-08-28T07:24:23.363Z,99013.72
2022-08-28T07:26:52.270Z,99009.47
2022-08-28T07:29:21.163Z,99019.03
2022-08-28T07:31:53.514Z,99013.72
2022-08-28T07:34:27.077Z,99017.16
2022-08-28T07:36:58.218Z,99021.16
2022-08-28T07:39:26.919Z,99024.66
2022-08-28T07:41:55.949Z,99027.56
2022-08-28T07:44:42.319Z,99031.75
2022-08-28T07:47:12.743Z,99025.59
2022-08-28T07:49:41.948Z,99028.41
2022-08-28T07:52:11.433Z,99031.81
2022-08-28T07:54:40.802Z,99024.38
2022-08-28T07:57:10.775Z,99035.47
2022-08-28T07:59:42.253Z,99027.66
2022-08-28T08:02:12.535Z,99033.88
2022-08-28T08:04:41.919Z,99039.06
2022-08-28T08:07:12.818Z,99037.34
2022-08-28T08:09:43.893Z,99033.00
2022-08-28T08:12:14.701Z,99042.41
2022-08-28T08:14:45.714Z,99040.31
2022-08-28T08:17:15.874Z,99043.50
2022-08-28T08:19:44.971Z,99037.03
2022-08-28T08:22:14.104Z,99044.91
2022-08-28T08:24:42.911Z,99038.41
2022-08-28T08:27:11.898Z,99051.13
2022-08-28T08:29:40.768Z,99042.75
2022-08-28T08:32:11.789Z,99052.94
2022-08-28T08:34:43.262Z,99046.00
2022-08-28T08:37:13.508Z,99050.19
2022-08-28T08:39:43.413Z,99051.47
2022-08-28T08:42:22.550Z,99055.78
2022-08-28T08:44:52.997Z,99048.31
2022-08-28T08:47:24.300Z,99058.03
2022-08-28T08:49:57.551Z,99053.56
2022-08-28T08:52:35.412Z,99053.50
2022-08-28T08:55:15.433Z,99054.00
2022-08-28T08:57:46.177Z,99052.34
2022-08-28T09:00:19.165Z,99055.22
2022-08-28T09:02:53.084Z,99064.03
2022-08-28T09:05:25.293Z,99067.41
2022-08-28T09:07:57.739Z,99063.84
2022-08-28T09:10:34.703Z,99069.31
2022-08-28T09:13:08.043Z,99062.19
2022-08-28T09:15:42.781Z,99070.94
2022-08-28T09:18:19.020Z,99056.00
2022-08-28T09:20:52.755Z,99066.25
2022-08-28T09:23:23.822Z,99070.75
2022-08-28T09:25:56.527Z,99068.91
2022-08-28T09:28:31.077Z,99077.03
2022-08-28T09:31:03.308Z,99078.06
2022-08-28T09:33:36.049Z,99081.56
2022-08-28T09:36:32.691Z,99078.41
2022-08-28T09:39:10.754Z,99071.72
2022-08-28T09:42:02.576Z,99077.72
2022-08-28T09:44:31.443Z,99077.59
2022-08-28T09:47:00.284Z,99074.81
2022-08-28T09:52:01.564Z,99063.81
2022-08-28T09:54:34.287Z,99073.75
2022-08-28T09:57:03.820Z,99080.34
2022-08-28T09:59:32.771Z,99075.53
2022-08-28T10:02:22.347Z,99074.09
2022-08-28T10:04:59.242Z,99074.88
2022-08-28T10:07:41.236Z,99073.53
2022-08-28T10:10:19.671Z,99071.50
2022-08-28T10:12:59.571Z,99079.28
2022-08-28T10:15:32.538Z,99071.91
2022-08-28T10:18:15.378Z,99067.00
2022-08-28T10:20:50.109Z,99067.16
2022-08-28T10:23:27.874Z,99067.53
2022-08-28T10:26:03.827Z,99069.22
2022-08-28T10:28:43.658Z,99068.50
2022-08-28T10:31:19.108Z,99063.25
2022-08-28T10:34:02.748Z,99063.03
2022-08-28T10:36:34.787Z,99064.00
2022-08-28T10:39:17.460Z,99071.34
2022-08-28T10:41:49.016Z,99061.00
2022-08-28T10:44:23.496Z,99064.00
2022-08-28T10:46:55.555Z,99062.47
2022-08-28T10:49:27.434Z,99062.81
2022-08-28T10:51:59.063Z,99063.78
2022-08-28T10:54:33.333Z,99069.38
2022-08-28T10:57:07.786Z,99053.25
2022-08-28T10:59:42.226Z,99054.94
2022-08-28T11:02:14.263Z,99062.16
2022-08-28T11:04:43.345Z,99073.00
2022-08-28T11:07:15.349Z,99066.41
2022-08-28T11:09:48.906Z,99072.03
2022-08-28T11:12:38.179Z,99072.13
2022-08-28T11:15:43.837Z,99071.16
2022-08-28T11:18:45.290Z,99074.69
2022-08-28T11:21:20.121Z,99078.06
2022-08-28T11:23:53.329Z,99075.28
2022-08-28T11:26:31.567Z,99069.66
2022-08-28T11:29:03.256Z,99071.84
2022-08-28T11:31:42.300Z,99072.75
2022-08-28T11:34:44.428Z,99069.28
2022-08-28T11:37:40.424Z,99061.25
2022-08-28T11:40:17.495Z,99062.31
2022-08-28T11:42:49.333Z,99064.81
2022-08-28T11:45:23.876Z,99060.50
2022-08-28T11:47:56.447Z,99059.84
2022-08-28T11:50:31.625Z,99062.47
2022-08-28T11:53:17.434Z,99060.75
2022-08-28T11:56:16.013Z,99056.44
2022-08-28T11:59:18.897Z,99059.41
2022-08-28T12:01:47.616Z,99064.94
2022-08-28T12:04:19.969Z,99063.03
2022-08-28T12:06:54.562Z,99060.72
2022-08-28T12:09:42.088Z,99059.00
2022-08-28T12:12:15.039Z,99049.56
2022-08-28T12:15:09.877Z,99054.19
2022-08-28T12:17:57.701Z,99047.06
2022-08-28T12:20:40.602Z,99056.38
2022-08-28T12:23:45.968Z,99047.53
2022-08-28T12:26:24.746Z,99040.94
2022-08-28T12:28:56.389Z,99049.56
2022-08-28T12:32:06.164Z,99051.91
2022-08-28T12:34:43.775Z,99054.41
2022-08-28T12:37:29.368Z,99053.00
2022-08-28T12:40:02.902Z,99048.91
2022-08-28T12:42:33.007Z,99051.13
2022-08-28T12:45:05.252Z,99046.06
2022-08-28T12:47:37.491Z,99042.91
2022-08-28T12:50:22.786Z,99051.44
2022-08-28T12:52:52.813Z,99045.13
2022-08-28T12:55:24.461Z,99044.00
2022-08-28T12:57:54.922Z,99042.78
2022-08-28T13:00:25.789Z,99037.19
2022-08-28T13:02:57.149Z,99039.44
2022-08-28T13:05:33.265Z,99028.56
2022-08-28T13:08:04.888Z,99031.09
2022-08-28T13:10:36.611Z,99032.06
2022-08-28T13:13:10.922Z,99036.47
2022-08-28T13:15:48.433Z,99026.25
2022-08-28T13:18:56.487Z,99030.22
2022-08-28T13:21:35.197Z,99027.88
2022-08-28T13:24:27.717Z,99024.69
2022-08-28T13:27:06.698Z,99018.03
2022-08-28T13:29:36.592Z,99012.34
2022-08-28T13:32:08.147Z,99010.13
2022-08-28T13:34:47.633Z,99014.41
2022-08-28T13:37:41.755Z,99017.09
2022-08-28T13:40:30.156Z,99012.53
2022-08-28T13:43:07.761Z,99008.91
2022-08-28T13:45:43.914Z,99002.63
2022-08-28T13:48:14.025Z,99003.41
2022-08-28T13:50:47.369Z,99006.09
2022-08-28T13:53:17.806Z,99006.72
2022-08-28T13:55:47.555Z,99005.47
2022-08-28T13:58:16.416Z,99008.13
2022-08-28T14:00:47.483Z,98998.69
2022-08-28T14:03:34.223Z,99000.56
2022-08-28T14:06:07.658Z,98992.38
2022-08-28T14:08:36.760Z,98999.47
2022-08-28T14:11:07.215Z,98999.75
2022-08-28T14:13:35.981Z,99001.63
2022-08-28T14:16:06.250Z,98995.50
2022-08-28T14:18:35.660Z,98990.91
2022-08-28T14:21:07.574Z,98991.56
2022-08-28T14:23:36.364Z,98993.78
2022-08-28T14:26:06.340Z,98989.69
2022-08-28T14:28:35.408Z,98977.84
2022-08-28T14:31:09.897Z,98989.03
2022-08-28T14:33:42.367Z,98984.63
2022-08-28T14:36:18.076Z,98980.53
2022-08-28T14:38:46.904Z,98979.44
2022-08-28T14:41:17.469Z,98974.84
2022-08-28T14:43:47.957Z,98972.31
2022-08-28T14:46:17.097Z,98977.03
2022-08-28T14:48:45.986Z,98980.19
2022-08-28T14:51:15.018Z,98985.06
2022-08-28T14:53:45.582Z,98980.03
2022-08-28T14:56:14.367Z,98971.19
2022-08-28T14:58:43.742Z,98967.72
2022-08-28T15:01:22.512Z,98969.94
2022-08-28T15:03:51.762Z,98964.56
2022-08-28T15:06:20.840Z,98964.13
2022-08-28T15:08:51.225Z,98970.72
2022-08-28T15:11:23.008Z,98968.69
2022-08-28T15:13:53.161Z,98962.41
2022-08-28T15:16:29.672Z,98964.44
2022-08-28T15:19:00.042Z,98961.59
2022-08-28T15:21:32.215Z,98958.59
2022-08-28T15:24:04.186Z,98961.91
2022-08-28T15:26:33.746Z,98962.69
2022-08-28T15:29:03.241Z,98969.63
2022-08-28T15:31:33.177Z,98966.81
2022-08-28T15:34:04.121Z,98966.78
2022-08-28T15:36:36.356Z,98965.97
2022-08-28T15:39:25.336Z,98964.97
2022-08-28T15:41:54.124Z,98968.28
2022-08-28T15:44:23.225Z,98959.94
2022-08-28T15:46:53.006Z,98961.50
2022-08-28T15:49:23.914Z,98953.91
2022-08-28T15:51:53.159Z,98955.50
2022-08-28T15:54:23.789Z,98961.44
2022-08-28T15:56:53.967Z,98957.22
2022-08-28T15:59:23.759Z,98948.22
2022-08-28T16:02:07.299Z,98958.78
2022-08-28T16:04:37.140Z,98960.97
2022-08-28T16:07:05.953Z,98954.22
2022-08-28T16:09:36.195Z,98963.19
2022-08-28T16:12:05.668Z,98961.59
2022-08-28T16:14:34.692Z,98956.56
2022-08-28T16:17:05.865Z,98955.75
2022-08-28T16:19:39.897Z,98952.97
2022-08-28T16:22:08.945Z,98956.09
2022-08-28T16:24:39.183Z,98962.25
2022-08-28T16:27:11.949Z,98958.31
2022-08-28T16:29:44.413Z,98945.06
2022-08-28T16:32:13.881Z,98958.13
2022-08-28T16:34:44.939Z,98956.06
2022-08-28T16:37:15.816Z,98951.53
2022-08-28T16:39:54.390Z,98954.34
2022-08-28T16:42:27.665Z,98962.97
2022-08-28T16:45:00.381Z,98961.06
2022-08-28T16:47:31.622Z,98958.22
2022-08-28T16:50:02.700Z,98956.75
2022-08-28T16:52:31.557Z,98962.13
2022-08-28T16:55:02.381Z,98957.38
2022-08-28T16:57:31.422Z,98955.63
2022-08-28T17:00:00.381Z,98970.88
2022-08-28T17:02:29.449Z,98967.41
2022-08-28T17:05:00.477Z,98969.09
2022-08-28T17:07:29.781Z,98972.81
2022-08-28T17:09:58.574Z,98971.25
2022-08-28T17:12:29.247Z,98976.53
2022-08-28T17:14:58.062Z,98968.28
2022-08-28T17:17:26.973Z,98976.91
2022-08-28T17:19:55.827Z,98977.50
2022-08-28T17:22:31.857Z,98976.31
2022-08-28T17:25:01.727Z,98977.50
2022-08-28T17:27:32.179Z,98978.78
2022-08-28T17:30:04.694Z,98972.78
2022-08-28T17:32:33.813Z,98985.34
2022-08-28T17:35:03.184Z,98984.69
2022-08-28T17:37:32.376Z,98992.81
2022-08-28T17:40:01.228Z,98994.97
2022-08-28T17:42:31.576Z,99000.13
2022-08-28T17:45:00.553Z,99002.72
2022-08-28T17:47:31.106Z,98998.16
2022-08-28T17:50:01.392Z,99008.06
2022-08-28T17:52:31.647Z,98995.94
2022-08-28T17:55:00.651Z,99001.38
2022-08-28T17:57:31.267Z,98999.31
2022-08-28T18:00:01.275Z,99005.25
2022-08-28T18:02:33.940Z,99008.78
2022-08-28T18:05:03.328Z,99005.16
2022-08-28T18:07:32.190Z,99009.81
2022-08-28T18:10:01.382Z,99013.19
2022-08-28T18:12:31.682Z,99013.59
2022-08-28T18:15:00.547Z,99007.84
2022-08-28T18:17:29.272Z,99016.47
2022-08-28T18:19:59.952Z,99013.41
2022-08-28T18:22:31.536Z,99014.00
2022-08-28T18:25:00.281Z,99015.41
2022-08-28T18:27:31.554Z,99031.00
2022-08-28T18:30:01.908Z,99030.63
2022-08-28T18:32:30.834Z,99026.25
2022-08-28T18:34:59.920Z,99030.50
2022-08-28T18:37:28.841Z,99042.31
2022-08-28T18:39:57.695Z,99048.25
2022-08-28T18:42:26.748Z,99053.97
2022-08-28T18:44:55.514Z,99051.09
2022-08-28T18:47:25.833Z,99053.38
2022-08-28T18:49:54.623Z,99057.28
2022-08-28T18:52:23.364Z,99069.03
2022-08-28T18:54:52.245Z,99071.09
2022-08-28T18:57:25.646Z,99073.94
2022-08-28T18:59:54.945Z,99074.00
2022-08-28T19:02:25.234Z,99089.03
2022-08-28T19:04:54.277Z,99091.53
2022-08-28T19:07:23.344Z,99085.56
2022-08-28T19:09:52.154Z,99085.69
2022-08-28T19:12:20.972Z,99089.22
2022-08-28T19:14:50.180Z,99093.31
2022-08-28T19:17:21.090Z,99090.81
2022-08-28T19:19:51.830Z,99093.53
2022-08-28T19:22:21.019Z,99099.44
2022-08-28T19:24:50.330Z,99098.19
2022-08-28T19:27:19.606Z,99104.59
2022-08-28T19:29:48.547Z,99108.03
2022-08-28T19:32:18.143Z,99099.84
2022-08-28T19:34:46.899Z,99116.44
2022-08-28T19:37:17.369Z,99112.97
2022-08-28T19:39:51.026Z,99110.97
2022-08-28T19:42:25.465Z,99108.34
2022-08-28T19:45:00.033Z,99107.38
2022-08-28T19:47:29.075Z,99101.06
2022-08-28T19:50:07.065Z,99106.91
2022-08-28T19:52:37.831Z,99120.00
2022-08-28T19:55:08.183Z,99108.63
2022-08-28T19:57:37.117Z,99111.28
2022-08-28T20:00:07.231Z,99113.19
2022-08-28T20:02:37.019Z,99110.88
2022-08-28T20:05:06.877Z,99123.09
2022-08-28T20:07:37.056Z,99123.66
2022-08-28T20:10:07.424Z,99127.94
2022-08-28T20:12:38.497Z,99130.69
2022-08-28T20:15:08.732Z,99130.22
2022-08-28T20:17:43.825Z,99135.00
2022-08-28T20:20:13.443Z,99139.28
2022-08-28T20:22:43.954Z,99132.91
2022-08-28T20:25:12.824Z,99138.78
2022-08-28T20:27:43.643Z,99131.94
2022-08-28T20:30:13.936Z,99141.56
2022-08-28T20:32:42.803Z,99146.13
2022-08-28T20:35:13.566Z,99134.94
2022-08-28T20:37:45.832Z,99138.44
2022-08-28T20:40:17.141Z,99147.47
2022-08-28T20:42:47.279Z,99140.84
2022-08-28T20:45:17.851Z,99143.78
2022-08-28T20:47:47.083Z,99138.25
2022-08-28T20:50:16.072Z,99144.41
2022-08-28T20:52:46.330Z,99151.56
2022-08-28T20:55:15.146Z,99147.88
2022-08-28T20:57:44.094Z,99145.50
2022-08-28T21:00:14.100Z,99153.72
2022-08-28T21:02:42.862Z,99142.63
2022-08-28T21:05:12.099Z,99151.94
2022-08-28T21:07:40.917Z,99149.03
2022-08-28T21:10:11.455Z,99162.56
2022-08-28T21:12:41.061Z,99159.97
2022-08-28T21:15:12.772Z,99161.28
2022-08-28T21:17:42.712Z,99151.22
2022-08-28T21:20:14.255Z,99166.88
2022-08-28T21:22:43.201Z,99167.94
2022-08-28T21:25:14.086Z,99168.22
2022-08-28T21:27:43.077Z,99168.22
2022-08-28T21:30:14.478Z,99172.22
2022-08-28T21:32:43.371Z,99172.78
2022-08-28T21:35:13.686Z,99173.06
2022-08-28T21:37:43.190Z,99169.06
2022-08-28T21:40:14.984Z,99167.19
2022-08-28T21:42:44.335Z,99171.69
2022-08-28T21:45:13.393Z,99173.59
2022-08-28T21:47:43.228Z,99171.47
2022-08-28T21:50:13.238Z,99167.78
2022-08-28T21:52:42.354Z,99161.94
2022-08-28T21:55:14.730Z,99162.19
2022-08-28T21:57:44.577Z,99164.34
2022-08-28T22:00:17.582Z,99165.38
2022-08-28T22:02:46.590Z,99170.69
2022-08-28T22:05:16.059Z,99169.91
2022-08-28T22:07:45.258Z,99176.56
2022-08-28T22:10:15.929Z,99170.19
2022-08-28T22:12:44.971Z,99174.69
2022-08-28T22:15:13.816Z,99162.50
2022-08-28T22:17:43.385Z,99174.16
2022-08-28T22:20:12.579Z,99169.66
2022-08-28T22:22:58.867Z,99176.03
2022-08-28T22:25:29.229Z,99183.44
2022-08-28T22:27:58.120Z,99173.38
2022-08-28T22:30:26.976Z,99170.69
2022-08-28T22:32:55.726Z,99183.97
2022-08-28T22:35:24.831Z,99180.81
2022-08-28T22:37:53.607Z,99174.44
2022-08-28T22:40:22.703Z,99181.59
2022-08-28T22:42:52.884Z,99175.47
2022-08-28T22:45:22.321Z,99189.53
2022-08-28T22:47:51.156Z,99190.00
2022-08-28T22:50:20.084Z,99186.06
2022-08-28T22:52:49.703Z,99174.91
2022-08-28T22:55:20.270Z,99185.22
2022-08-28T22:57:49.149Z,99187.34
2022-08-28T23:00:23.847Z,99188.13
2022-08-28T23:02:53.619Z,99184.66
2022-08-28T23:05:23.286Z,99186.00
2022-08-28T23:07:52.468Z,99187.59
2022-08-28T23:10:36.718Z,99191.84
2022-08-28T23:13:14.387Z,99182.56
2022-08-28T23:15:45.093Z,99186.78
2022-08-28T23:18:13.965Z,99193.91
2022-08-28T23:20:43.904Z,99191.00
2022-08-28T23:23:12.931Z,99190.72
2022-08-28T23:25:41.984Z,99188.63
2022-08-28T23:28:10.855Z,99190.19
2022-08-28T23:30:43.993Z,99175.88
2022-08-28T23:33:23.531Z,99187.81
2022-08-28T23:35:52.954Z,99185.94
2022-08-28T23:38:21.777Z,99187.78
2022-08-28T23:40:50.790Z,99185.34
2022-08-28T23:43:19.619Z,99183.75
2022-08-28T23:45:49.141Z,99176.06
2022-08-28T23:48:19.433Z,99180.59
2022-08-28T23:50:48.265Z,99175.56
2022-08-28T23:53:17.328Z,99176.31
2022-08-28T23:55:46.471Z,99169.44
2022-08-28T23:58:18.256Z,99174.44
